Main page
METAR-TAF:

METAR-TAF

Airports :

RNAS Yeovilton (HMS Heron)

Yeovilton, England

latitude: 51-00N, longitude: 002-38W, elevation: 23 m

Current weather observation

The report was made 31 minutes ago, at 20:50 UTC
Wind 4 kt from the West
Temperature 12°C
Humidity 94%
Pressure 1019 hPa
Visibility: 7000 m
haze

METAR: EGDY 202050Z AUTO 26004KT 7000 HZ NCD 12/11 Q1019

Time: 22:21 (21:21 UTC)


TAF: missing

Weather observations and forecasts of more than 4000 airports (METAR and TAF reports).

The available stations are represented by yellow and red dots on the map.

Hover mouse over dot to see the name of the station.

Then click to see weather observations and forecasts.

To change the map : click on the green buttons with a black cross to zoom in, on the green button with a dash to zoom out, or on the green arrows for adjacent maps.


METAR-TAF: